createdAt,value
2017-04-11T00:01:15.283Z,23.27
2017-04-11T00:02:15.221Z,23.34
2017-04-11T00:03:15.159Z,23.39
2017-04-11T00:04:14.796Z,23.32
2017-04-11T00:05:14.729Z,23.31
2017-04-11T00:06:14.972Z,23.46
2017-04-11T00:07:14.913Z,23.24
2017-04-11T00:08:14.549Z,23.41
2017-04-11T00:09:14.786Z,23.31
2017-04-11T00:10:14.733Z,23.28
2017-04-11T00:11:14.659Z,23.34
2017-04-11T00:12:14.596Z,23.27
2017-04-11T00:13:14.535Z,23.31
2017-04-11T00:14:14.524Z,23.28
2017-04-11T00:15:14.411Z,23.34
2017-04-11T00:16:14.345Z,23.37
2017-04-11T00:17:13.981Z,23.31
2017-04-11T00:18:14.123Z,23.31
2017-04-11T00:19:14.163Z,23.36
2017-04-11T00:20:14.097Z,23.31
2017-04-11T00:21:14.035Z,23.41
2017-04-11T00:22:13.971Z,23.4
2017-04-11T00:23:13.906Z,23.31
2017-04-11T00:24:13.847Z,23.23
2017-04-11T00:25:13.790Z,23.27
2017-04-11T00:26:13.736Z,23.31
2017-04-11T00:27:13.658Z,23.32
2017-04-11T00:28:13.599Z,23.28
2017-04-11T00:29:13.538Z,23.28
2017-04-11T00:30:13.470Z,23.31
2017-04-11T00:31:13.409Z,23.28
2017-04-11T00:32:13.344Z,23.31
2017-04-11T00:33:13.284Z,23.28
2017-04-11T00:34:13.227Z,23.34
2017-04-11T00:35:13.157Z,23.31
2017-04-11T00:36:13.097Z,23.37
2017-04-11T00:37:13.186Z,23.4
2017-04-11T00:38:12.671Z,23.34
2017-04-11T00:39:12.911Z,23.36
2017-04-11T00:40:12.554Z,23.32
2017-04-11T00:41:12.786Z,23.34
2017-04-11T00:42:12.924Z,23.36
2017-04-11T00:43:12.668Z,23.28
2017-04-11T00:44:12.629Z,23.31
2017-04-11T00:45:12.535Z,23.27
2017-04-11T00:46:12.508Z,23.34
2017-04-11T00:47:12.417Z,23.32
2017-04-11T00:48:12.348Z,23.39
2017-04-11T00:49:12.290Z,23.31
2017-04-11T00:50:12.224Z,23.34
2017-04-11T00:51:12.164Z,23.32
2017-04-11T00:52:12.097Z,23.39
2017-04-11T00:53:12.046Z,23.32
2017-04-11T00:54:11.974Z,23.39
2017-04-11T00:55:11.911Z,23.32
2017-04-11T00:56:11.846Z,23.37
2017-04-11T00:57:11.795Z,23.31
2017-04-11T00:58:11.730Z,23.34
2017-04-11T00:59:11.360Z,23.37
2017-04-11T01:00:11.623Z,23.25
2017-04-11T01:01:11.552Z,23.32
2017-04-11T01:02:11.478Z,23.36
2017-04-11T01:03:11.455Z,23.32
2017-04-11T01:04:11.345Z,23.36
2017-04-11T01:05:11.287Z,23.32
2017-04-11T01:06:11.221Z,23.27
2017-04-11T01:07:11.163Z,23.27
2017-04-11T01:08:10.964Z,23.28
2017-04-11T01:09:11.042Z,23.36
2017-04-11T01:10:10.972Z,23.32
2017-04-11T01:11:10.906Z,23.36
2017-04-11T01:12:10.865Z,23.32
2017-04-11T01:13:10.787Z,23.36
2017-04-11T01:14:10.724Z,23.36
2017-04-11T01:15:10.697Z,23.36
2017-04-11T01:16:10.600Z,23.25
2017-04-11T01:17:10.537Z,23.37
2017-04-11T01:18:10.476Z,23.27
2017-04-11T01:19:10.416Z,23.32
2017-04-11T01:20:10.051Z,23.24
2017-04-11T01:21:10.289Z,23.32
2017-04-11T01:22:10.228Z,23.27
2017-04-11T01:23:10.164Z,23.36
2017-04-11T01:24:09.802Z,23.28
2017-04-11T01:25:10.041Z,23.32
2017-04-11T01:26:09.674Z,23.25
2017-04-11T01:27:09.610Z,23.34
2017-04-11T01:28:09.852Z,23.28
2017-04-11T01:29:09.792Z,23.28
2017-04-11T01:30:09.727Z,23.36
2017-04-11T01:31:09.663Z,23.31
2017-04-11T01:32:09.601Z,23.34
2017-04-11T01:33:09.538Z,23.27
2017-04-11T01:34:09.476Z,23.27
2017-04-11T01:35:09.433Z,23.27
2017-04-11T01:36:09.353Z,23.24
2017-04-11T01:37:09.287Z,23.32
2017-04-11T01:38:09.227Z,23.27
2017-04-11T01:39:09.178Z,23.28
2017-04-11T01:40:09.106Z,23.23
2017-04-11T01:41:09.039Z,23.36
2017-04-11T01:42:08.673Z,23.2
2017-04-11T01:43:08.918Z,23.27
2017-04-11T01:44:08.699Z,23.32
2017-04-11T01:45:08.851Z,23.25
2017-04-11T01:46:08.423Z,23.25
2017-04-11T01:47:08.664Z,23.24
2017-04-11T01:48:08.602Z,23.27
2017-04-11T01:49:08.548Z,23.27
2017-04-11T01:50:07.874Z,23.25
2017-04-11T01:51:08.423Z,23.21
2017-04-11T01:52:08.355Z,23.23
2017-04-11T01:53:08.290Z,23.23
2017-04-11T01:54:07.774Z,23.34
2017-04-11T01:55:08.170Z,23.23
2017-04-11T01:56:08.105Z,23.21
2017-04-11T01:57:07.737Z,23.24
2017-04-11T01:58:07.979Z,23.28
2017-04-11T01:59:07.919Z,23.28
2017-04-11T02:00:07.852Z,23.23
2017-04-11T02:01:07.801Z,23.24
2017-04-11T02:02:07.730Z,23.23
2017-04-11T02:03:07.669Z,23.21
2017-04-11T02:04:07.600Z,23.25
2017-04-11T02:05:07.250Z,23.23
2017-04-11T02:06:07.175Z,23.23
2017-04-11T02:07:07.420Z,23.2
2017-04-11T02:08:07.069Z,23.28
2017-04-11T02:09:07.293Z,23.2
2017-04-11T02:10:07.231Z,23.21
2017-04-11T02:11:06.866Z,23.25
2017-04-11T02:12:07.103Z,23.23
2017-04-11T02:13:07.040Z,23.31
2017-04-11T02:14:06.978Z,23.2
2017-04-11T02:15:06.913Z,23.23
2017-04-11T02:16:06.853Z,23.2
2017-04-11T02:17:06.785Z,23.25
2017-04-11T02:18:06.727Z,23.24
2017-04-11T02:19:06.661Z,23.28
2017-04-11T02:20:06.648Z,23.17
2017-04-11T02:21:06.547Z,23.2
2017-04-11T02:22:06.539Z,23.23
2017-04-11T02:23:06.416Z,23.23
2017-04-11T02:24:06.356Z,23.27
2017-04-11T02:25:06.324Z,23.2
2017-04-11T02:26:06.229Z,23.24
2017-04-11T02:27:06.189Z,23.2
2017-04-11T02:28:06.103Z,23.21
2017-04-11T02:29:06.049Z,23.2
2017-04-11T02:30:05.980Z,23.2
2017-04-11T02:31:05.917Z,23.18
2017-04-11T02:32:05.860Z,23.21
2017-04-11T02:33:05.793Z,23.21
2017-04-11T02:34:05.770Z,23.23
2017-04-11T02:35:05.364Z,23.21
2017-04-11T02:36:05.604Z,23.32
2017-04-11T02:37:05.238Z,23.24
2017-04-11T02:38:05.480Z,23.24
2017-04-11T02:39:05.417Z,23.24
2017-04-11T02:40:04.748Z,23.18
2017-04-11T02:41:05.290Z,23.2
2017-04-11T02:42:05.229Z,23.2
2017-04-11T02:43:05.214Z,23.18
2017-04-11T02:44:05.111Z,23.21
2017-04-11T02:45:05.040Z,23.25
2017-04-11T02:46:04.974Z,23.24
2017-04-11T02:47:04.915Z,23.25
2017-04-11T02:48:04.856Z,23.25
2017-04-11T02:49:04.790Z,23.24
2017-04-11T02:50:04.742Z,23.21
2017-04-11T02:51:04.364Z,23.28
2017-04-11T02:52:04.603Z,23.23
2017-04-11T02:53:04.542Z,23.21
2017-04-11T02:54:04.484Z,23.21
2017-04-11T02:55:04.414Z,23.23
2017-04-11T02:56:04.352Z,23.21
2017-04-11T02:57:04.288Z,23.2
2017-04-11T02:58:04.229Z,23.27
2017-04-11T02:59:04.167Z,23.25
2017-04-11T03:00:04.105Z,23.24
2017-04-11T03:01:04.042Z,23.24
2017-04-11T03:02:03.983Z,23.32
2017-04-11T03:03:03.915Z,23.21
2017-04-11T03:04:03.853Z,23.23
2017-04-11T03:05:03.793Z,23.24
2017-04-11T03:06:03.812Z,23.27
2017-04-11T03:07:03.666Z,23.24
2017-04-11T03:08:03.608Z,23.24
2017-04-11T03:09:03.544Z,23.27
2017-04-11T03:10:03.516Z,23.24
2017-04-11T03:11:02.813Z,23.28
2017-04-11T03:12:03.356Z,23.21
2017-04-11T03:13:03.288Z,23.24
2017-04-11T03:14:02.926Z,23.23
2017-04-11T03:15:02.868Z,23.23
2017-04-11T03:16:03.101Z,23.27
2017-04-11T03:17:03.045Z,23.27
2017-04-11T03:18:02.978Z,23.27
2017-04-11T03:19:02.918Z,23.24
2017-04-11T03:20:02.859Z,23.18
2017-04-11T03:21:02.788Z,23.2
2017-04-11T03:22:02.424Z,23.23
2017-04-11T03:23:02.706Z,23.23
2017-04-11T03:24:02.604Z,23.18
2017-04-11T03:25:02.640Z,23.23
2017-04-11T03:26:02.178Z,23.24
2017-04-11T03:27:02.416Z,23.24
2017-04-11T03:28:02.356Z,23.21
2017-04-11T03:29:02.291Z,23.23
2017-04-11T03:30:02.237Z,23.18
2017-04-11T03:31:01.877Z,23.23
2017-04-11T03:32:01.803Z,23.21
2017-04-11T03:33:01.756Z,23.23
2017-04-11T03:34:01.680Z,23.2
2017-04-11T03:35:01.617Z,23.23
2017-04-11T03:36:01.850Z,23.23
2017-04-11T03:37:01.793Z,23.24
2017-04-11T03:38:01.725Z,23.23
2017-04-11T03:39:01.701Z,23.2
2017-04-11T03:40:01.606Z,23.23
2017-04-11T03:41:01.237Z,23.2
2017-04-11T03:42:01.487Z,23.21
2017-04-11T03:43:01.418Z,23.23
2017-04-11T03:44:01.357Z,23.21
2017-04-11T03:45:01.537Z,23.2
2017-04-11T03:46:01.230Z,23.2
2017-04-11T03:47:01.161Z,23.15
2017-04-11T03:48:01.105Z,23.24
2017-04-11T03:49:00.736Z,23.15
2017-04-11T03:50:00.977Z,23.17
2017-04-11T03:51:00.918Z,23.23
2017-04-11T03:52:00.852Z,23.21
2017-04-11T03:53:00.796Z,23.17
2017-04-11T03:54:00.726Z,23.23
2017-04-11T03:55:00.360Z,23.23
2017-04-11T03:56:00.300Z,23.25
2017-04-11T03:57:00.533Z,23.23
2017-04-11T03:58:00.471Z,23.12
2017-04-11T03:59:00.418Z,23.23
2017-04-11T04:00:00.350Z,23.24
2017-04-11T04:01:00.288Z,23.18
2017-04-11T04:02:00.222Z,23.2
2017-04-11T04:03:00.164Z,23.21
2017-04-11T04:04:00.107Z,23.18
2017-04-11T04:05:00.044Z,23.2
2017-04-11T04:05:59.681Z,23.2
2017-04-11T04:06:59.912Z,23.17
2017-04-11T04:07:59.550Z,23.15
2017-04-11T04:08:59.797Z,23.2
2017-04-11T04:09:59.446Z,23.15
2017-04-11T04:10:59.664Z,23.18
2017-04-11T04:11:59.602Z,23.18
2017-04-11T04:12:59.231Z,23.2
2017-04-11T04:13:59.475Z,23.18
2017-04-11T04:14:59.414Z,23.13
2017-04-11T04:15:59.396Z,23.17
2017-04-11T04:16:59.290Z,23.17
2017-04-11T04:17:59.224Z,23.2
2017-04-11T04:18:59.196Z,23.18
2017-04-11T04:19:59.096Z,23.15
2017-04-11T04:20:59.035Z,23.2
2017-04-11T04:21:58.976Z,23.18
2017-04-11T04:22:58.908Z,23.18
2017-04-11T04:23:58.856Z,23.15
2017-04-11T04:24:58.792Z,23.21
2017-04-11T04:25:58.584Z,23.12
2017-04-11T04:26:58.669Z,23.13
2017-04-11T04:27:58.604Z,23.13
2017-04-11T04:28:58.536Z,23.17
2017-04-11T04:29:58.169Z,23.21
2017-04-11T04:30:58.106Z,23.1
2017-04-11T04:31:58.041Z,23.15
2017-04-11T04:32:58.288Z,23.15
2017-04-11T04:33:58.221Z,23.13
2017-04-11T04:34:58.197Z,23.12
2017-04-11T04:35:58.097Z,23.13
2017-04-11T04:36:58.035Z,23.08
2017-04-11T04:37:57.972Z,23.17
2017-04-11T04:38:57.915Z,23.15
2017-04-11T04:39:57.845Z,23.15
2017-04-11T04:40:57.786Z,23.13
2017-04-11T04:41:57.720Z,23.17
2017-04-11T04:42:57.659Z,23.17
2017-04-11T04:43:57.597Z,23.12
2017-04-11T04:44:57.533Z,23.18
2017-04-11T04:45:57.467Z,23.13
2017-04-11T04:46:57.409Z,23.13
2017-04-11T04:47:57.353Z,23.1
2017-04-11T04:48:57.304Z,23.09
2017-04-11T04:49:57.219Z,23.09
2017-04-11T04:50:57.160Z,23.18
2017-04-11T04:51:57.094Z,23.13
2017-04-11T04:52:57.032Z,23.12
2017-04-11T04:53:56.976Z,23.08
2017-04-11T04:54:56.904Z,23.13
2017-04-11T04:55:57.092Z,23.15
2017-04-11T04:56:56.784Z,23.15
2017-04-11T04:57:56.720Z,23.12
2017-04-11T04:58:56.661Z,23.18
2017-04-11T04:59:56.597Z,23.1
2017-04-11T05:00:56.531Z,23.13
2017-04-11T05:01:56.465Z,23.13
2017-04-11T05:02:56.402Z,23.13
2017-04-11T05:03:56.342Z,23.09
2017-04-11T05:04:56.279Z,23.13
2017-04-11T05:05:56.219Z,23.18
2017-04-11T05:06:55.853Z,23.09
2017-04-11T05:07:56.093Z,23.15
2017-04-11T05:08:56.041Z,23.09
2017-04-11T05:09:55.969Z,23.05
2017-04-11T05:10:55.903Z,23.17
2017-04-11T05:11:55.850Z,23.1
2017-04-11T05:12:55.779Z,23.08
2017-04-11T05:13:55.717Z,23.1
2017-04-11T05:14:55.660Z,23.12
2017-04-11T05:15:55.595Z,23.08
2017-04-11T05:16:55.530Z,23.17
2017-04-11T05:17:55.465Z,23.08
2017-04-11T05:18:55.403Z,23.12
2017-04-11T05:19:55.341Z,23.08
2017-04-11T05:20:55.287Z,23.12
2017-04-11T05:21:55.216Z,23.08
2017-04-11T05:22:55.158Z,23.08
2017-04-11T05:23:55.087Z,23.1
2017-04-11T05:24:55.027Z,23.03
2017-04-11T05:25:54.964Z,23.1
2017-04-11T05:26:54.907Z,23.1
2017-04-11T05:27:54.884Z,23.05
2017-04-11T05:28:54.776Z,23.06
2017-04-11T05:29:54.723Z,23.08
2017-04-11T05:30:54.652Z,23.09
2017-04-11T05:31:54.290Z,23.09
2017-04-11T05:32:54.524Z,23.05
2017-04-11T05:33:54.466Z,23.12
2017-04-11T05:34:54.398Z,23.08
2017-04-11T05:35:54.337Z,23.09
2017-04-11T05:36:54.280Z,23.1
2017-04-11T05:37:53.908Z,23.08
2017-04-11T05:38:54.151Z,23.09
2017-04-11T05:39:54.122Z,23.08
2017-04-11T05:40:54.024Z,23.1
2017-04-11T05:41:53.962Z,23.06
2017-04-11T05:42:53.903Z,23.08
2017-04-11T05:43:53.836Z,23.08
2017-04-11T05:44:53.775Z,23.05
2017-04-11T05:45:53.714Z,23.03
2017-04-11T05:46:53.348Z,23.1
2017-04-11T05:47:53.587Z,23
2017-04-11T05:48:53.524Z,23.03
2017-04-11T05:49:53.465Z,23.05
2017-04-11T05:50:53.398Z,23.03
2017-04-11T05:51:53.334Z,23.08
2017-04-11T05:52:53.269Z,23.02
2017-04-11T05:53:53.210Z,23.08
2017-04-11T05:54:53.163Z,23.05
2017-04-11T05:55:53.080Z,23.03
2017-04-11T05:56:53.018Z,23.05
2017-04-11T05:57:52.963Z,23.03
2017-04-11T05:58:52.895Z,23.02
2017-04-11T05:59:52.831Z,23.02
2017-04-11T06:00:52.769Z,22.99
2017-04-11T06:01:52.708Z,23.02
2017-04-11T06:02:52.643Z,23
2017-04-11T06:03:52.585Z,23
2017-04-11T06:04:52.518Z,23.03
2017-04-11T06:05:52.456Z,23.06
2017-04-11T06:06:52.395Z,22.98
2017-04-11T06:07:52.330Z,23
2017-04-11T06:08:52.272Z,23.03
2017-04-11T06:09:52.204Z,23.02
2017-04-11T06:10:52.148Z,23.02
2017-04-11T06:11:52.076Z,23.06
2017-04-11T06:12:52.014Z,23.02
2017-04-11T06:13:51.651Z,23.06
2017-04-11T06:14:51.919Z,23.03
2017-04-11T06:15:51.845Z,23.06
2017-04-11T06:16:51.765Z,23
2017-04-11T06:17:51.703Z,23
2017-04-11T06:18:51.683Z,23.02
2017-04-11T06:19:51.585Z,23.06
2017-04-11T06:20:51.510Z,23.03
2017-04-11T06:21:51.452Z,23.03
2017-04-11T06:22:51.389Z,23.02
2017-04-11T06:23:51.326Z,23.05
2017-04-11T06:24:51.263Z,23.05
2017-04-11T06:25:50.899Z,23.06
2017-04-11T06:26:51.141Z,23.06
2017-04-11T06:27:51.070Z,23.02
2017-04-11T06:28:51.021Z,23.03
2017-04-11T06:29:50.950Z,22.99
2017-04-11T06:30:50.746Z,23.02
2017-04-11T06:31:50.827Z,23.02
2017-04-11T06:32:50.761Z,22.99
2017-04-11T06:33:50.698Z,22.98
2017-04-11T06:34:50.046Z,23.02
2017-04-11T06:35:50.572Z,22.98
2017-04-11T06:36:50.512Z,22.99
2017-04-11T06:37:50.450Z,22.96
2017-04-11T06:38:50.388Z,23.05
2017-04-11T06:39:50.321Z,23.02
2017-04-11T06:40:50.301Z,23.03
2017-04-11T06:41:50.202Z,23.02
2017-04-11T06:42:50.134Z,23.05
2017-04-11T06:43:50.074Z,23.02
2017-04-11T06:44:50.019Z,23
2017-04-11T06:45:49.946Z,23.05
2017-04-11T06:46:49.879Z,22.98
2017-04-11T06:47:49.820Z,23.02
2017-04-11T06:48:49.758Z,23.03
2017-04-11T06:49:49.695Z,23
2017-04-11T06:50:49.691Z,23.02
2017-04-11T06:51:49.569Z,23.02
2017-04-11T06:52:49.502Z,23.03
2017-04-11T06:53:49.444Z,23.03
2017-04-11T06:54:49.082Z,23.02
2017-04-11T06:55:49.322Z,23
2017-04-11T06:56:48.950Z,23.03
2017-04-11T06:57:49.194Z,22.99
2017-04-11T06:58:49.139Z,23.02
2017-04-11T06:59:49.067Z,22.98
2017-04-11T07:00:49.002Z,23
2017-04-11T07:01:48.944Z,23.02
2017-04-11T07:02:48.891Z,23
2017-04-11T07:03:48.850Z,23
2017-04-11T07:04:48.760Z,23.02
2017-04-11T07:05:48.683Z,23.02
2017-04-11T07:06:48.627Z,23.02
2017-04-11T07:07:48.566Z,22.98
2017-04-11T07:08:48.507Z,22.98
2017-04-11T07:09:48.435Z,23
2017-04-11T07:10:48.377Z,22.96
2017-04-11T07:11:48.311Z,22.96
2017-04-11T07:12:48.246Z,22.93
2017-04-11T07:13:48.185Z,22.98
2017-04-11T07:14:48.123Z,23
2017-04-11T07:15:48.059Z,22.94
2017-04-11T07:16:48.011Z,22.98
2017-04-11T07:17:47.932Z,22.9
2017-04-11T07:18:47.869Z,22.96
2017-04-11T07:19:47.805Z,22.96
2017-04-11T07:20:48.095Z,22.93
2017-04-11T07:21:47.678Z,22.88
2017-04-11T07:22:47.626Z,22.91
2017-04-11T07:23:47.556Z,22.87
2017-04-11T07:24:47.198Z,22.91
2017-04-11T07:25:47.580Z,23
2017-04-11T07:26:47.366Z,22.9
2017-04-11T07:27:47.309Z,23
2017-04-11T07:28:47.247Z,23.05
2017-04-11T07:29:47.180Z,22.98
2017-04-11T07:30:47.123Z,22.9
2017-04-11T07:31:47.066Z,22.88
2017-04-11T07:32:46.990Z,22.94
2017-04-11T07:33:46.928Z,22.96
2017-04-11T07:34:46.873Z,22.99
2017-04-11T07:35:46.800Z,22.99
2017-04-11T07:36:46.739Z,22.99
2017-04-11T07:37:46.372Z,23
2017-04-11T07:38:46.635Z,23
2017-04-11T07:39:46.555Z,22.91
2017-04-11T07:40:46.488Z,22.94
2017-04-11T07:41:46.424Z,23.02
2017-04-11T07:42:46.374Z,22.99
2017-04-11T07:43:45.998Z,22.99
2017-04-11T07:44:46.245Z,23.02
2017-04-11T07:45:46.180Z,22.96
2017-04-11T07:46:46.112Z,23
2017-04-11T07:47:46.056Z,22.96
2017-04-11T07:48:45.988Z,22.94
2017-04-11T07:49:45.920Z,22.98
2017-04-11T07:50:45.860Z,23
2017-04-11T07:51:45.800Z,22.99
2017-04-11T07:52:45.730Z,22.94
2017-04-11T07:53:45.673Z,22.98
2017-04-11T07:54:45.306Z,23.03
2017-04-11T07:55:45.240Z,22.91
2017-04-11T07:56:45.207Z,22.9
2017-04-11T07:57:45.420Z,22.96
2017-04-11T07:58:45.356Z,22.9
2017-04-11T07:59:45.301Z,22.9
2017-04-11T08:00:45.542Z,23.03
2017-04-11T08:01:45.170Z,22.96
2017-04-11T08:02:45.501Z,22.96
2017-04-11T08:03:45.044Z,23.02
2017-04-11T08:04:44.978Z,23.02
2017-04-11T08:05:45.081Z,23
2017-04-11T08:06:44.856Z,23.02
2017-04-11T08:07:44.793Z,22.94
2017-04-11T08:08:44.733Z,23.06
2017-04-11T08:09:44.666Z,22.99
2017-04-11T08:10:44.608Z,22.99
2017-04-11T08:11:44.237Z,23.03
2017-04-11T08:12:44.484Z,23.06
2017-04-11T08:13:44.443Z,23.03
2017-04-11T08:14:44.356Z,23.06
2017-04-11T08:15:43.995Z,23.02
2017-04-11T08:16:44.255Z,23.08
2017-04-11T08:17:44.162Z,23.06
2017-04-11T08:18:44.115Z,23.05
2017-04-11T08:19:44.071Z,23.05
2017-04-11T08:20:43.996Z,23.06
2017-04-11T08:21:43.919Z,23.08
2017-04-11T08:22:43.876Z,23.02
2017-04-11T08:23:43.802Z,23.09
2017-04-11T08:24:43.733Z,23.09
2017-04-11T08:25:43.663Z,23.09
2017-04-11T08:26:43.613Z,23.08
2017-04-11T08:27:43.533Z,23.08
2017-04-11T08:28:43.540Z,23.06
2017-04-11T08:29:43.129Z,23.17
2017-04-11T08:30:43.350Z,23.13
2017-04-11T08:31:43.006Z,23.15
2017-04-11T08:32:43.226Z,23.12
2017-04-11T08:33:42.885Z,23.18
2017-04-11T08:34:42.801Z,23.12
2017-04-11T08:35:43.036Z,23.12
2017-04-11T08:36:42.971Z,23.1
2017-04-11T08:37:42.905Z,23.13
2017-04-11T08:38:42.595Z,23.12
2017-04-11T08:39:42.783Z,23.15
2017-04-11T08:40:42.718Z,23.13
2017-04-11T08:41:42.660Z,23.12
2017-04-11T08:42:42.598Z,23.13
2017-04-11T08:43:42.528Z,23.15
2017-04-11T08:44:42.472Z,23.09
2017-04-11T08:45:42.434Z,23.18
2017-04-11T08:46:42.375Z,23.2
2017-04-11T08:47:42.309Z,23.2
2017-04-11T08:48:42.225Z,23.2
2017-04-11T08:49:42.161Z,23.15
2017-04-11T08:50:42.092Z,23.21
2017-04-11T08:51:42.030Z,23.24
2017-04-11T08:52:41.965Z,23.21
2017-04-11T08:53:41.902Z,23.2
2017-04-11T08:54:41.848Z,23.17
2017-04-11T08:55:41.780Z,23.24
2017-04-11T08:56:41.724Z,23.23
2017-04-11T08:57:41.569Z,23.24
2017-04-11T08:58:41.590Z,23.25
2017-04-11T08:59:41.530Z,23.18
2017-04-11T09:00:41.490Z,23.24
2017-04-11T09:01:41.399Z,23.2
2017-04-11T09:02:41.336Z,23.15
2017-04-11T09:03:41.279Z,23.25
2017-04-11T09:04:41.224Z,23.23
2017-04-11T09:05:41.150Z,23.24
2017-04-11T09:06:41.102Z,23.24
2017-04-11T09:07:41.025Z,23.25
2017-04-11T09:08:40.965Z,23.24
2017-04-11T09:09:40.899Z,23.25
2017-04-11T09:10:40.839Z,23.23
2017-04-11T09:11:40.774Z,23.28
2017-04-11T09:12:40.731Z,23.32
2017-04-11T09:13:40.653Z,23.32
2017-04-11T09:14:40.292Z,23.32
2017-04-11T09:15:40.523Z,23.37
2017-04-11T09:16:40.463Z,23.23
2017-04-11T09:17:40.403Z,23.4
2017-04-11T09:18:40.341Z,23.25
2017-04-11T09:19:39.984Z,23.27
2017-04-11T09:20:39.907Z,23.34
2017-04-11T09:21:40.150Z,23.39
2017-04-11T09:22:40.086Z,23.27
2017-04-11T09:23:39.720Z,23.47
2017-04-11T09:24:39.965Z,23.43
2017-04-11T09:25:39.752Z,23.47
2017-04-11T09:26:39.530Z,23.43
2017-04-11T09:27:39.775Z,23.44
2017-04-11T09:28:39.418Z,23.46
2017-04-11T09:29:39.650Z,23.47
2017-04-11T09:30:39.842Z,23.46
2017-04-11T09:31:39.524Z,23.46
2017-04-11T09:32:39.467Z,23.48
2017-04-11T09:33:39.420Z,23.47
2017-04-11T09:34:39.336Z,23.5
2017-04-11T09:35:39.274Z,23.44
2017-04-11T09:36:39.229Z,23.44
2017-04-11T09:37:39.163Z,23.56
2017-04-11T09:38:39.088Z,23.44
2017-04-11T09:39:39.030Z,23.54
2017-04-11T09:40:38.961Z,23.55
2017-04-11T09:41:38.908Z,23.44
2017-04-11T09:42:38.855Z,23.51
2017-04-11T09:43:38.797Z,23.46
2017-04-11T09:44:38.713Z,23.44
2017-04-11T09:45:38.658Z,23.41
2017-04-11T09:46:38.293Z,23.44
2017-04-11T09:47:38.526Z,23.44
2017-04-11T09:48:38.467Z,23.48
2017-04-11T09:49:38.402Z,23.44
2017-04-11T09:50:38.344Z,23.47
2017-04-11T09:51:38.275Z,23.48
2017-04-11T09:52:38.214Z,23.43
2017-04-11T09:53:38.153Z,23.44
2017-04-11T09:54:38.093Z,23.46
2017-04-11T09:55:37.722Z,23.44
2017-04-11T09:56:37.968Z,23.46
2017-04-11T09:57:37.915Z,23.46
2017-04-11T09:58:37.839Z,23.47
2017-04-11T09:59:37.477Z,23.43
2017-04-11T10:00:37.713Z,23.44
2017-04-11T10:01:37.664Z,23.41
2017-04-11T10:02:37.590Z,23.44
2017-04-11T10:03:37.530Z,23.48
2017-04-11T10:04:37.466Z,23.44
2017-04-11T10:05:36.810Z,23.47
2017-04-11T10:06:37.337Z,23.46
2017-04-11T10:07:37.306Z,23.5
2017-04-11T10:08:37.230Z,23.41
2017-04-11T10:09:36.851Z,23.46
2017-04-11T10:10:36.788Z,23.46
2017-04-11T10:11:36.726Z,23.47
2017-04-11T10:12:36.963Z,23.34
2017-04-11T10:13:36.931Z,23.37
2017-04-11T10:14:36.841Z,23.44
2017-04-11T10:15:36.474Z,23.37
2017-04-11T10:16:36.110Z,23.39
2017-04-11T10:17:36.364Z,23.37
2017-04-11T10:18:36.595Z,23.44
2017-04-11T10:19:36.534Z,23.47
2017-04-11T10:20:36.466Z,23.36
2017-04-11T10:21:36.103Z,23.37
2017-04-11T10:22:36.043Z,23.36
2017-04-11T10:23:36.282Z,23.34
2017-04-11T10:24:36.214Z,23.37
2017-04-11T10:25:36.155Z,23.37
2017-04-11T10:26:36.095Z,23.28
2017-04-11T10:27:36.032Z,23.37
2017-04-11T10:28:35.667Z,23.27
2017-04-11T10:29:35.604Z,23.39
2017-04-11T10:30:35.539Z,23.43
2017-04-11T10:31:35.176Z,23.28
2017-04-11T10:32:35.724Z,23.32
2017-04-11T10:33:35.353Z,23.31
2017-04-11T10:34:35.285Z,23.31
2017-04-11T10:35:35.232Z,23.28
2017-04-11T10:36:35.468Z,23.28
2017-04-11T10:37:35.105Z,23.28
2017-04-11T10:38:35.344Z,23.28
2017-04-11T10:39:35.284Z,23.34
2017-04-11T10:40:35.220Z,23.28
2017-04-11T10:41:34.556Z,23.28
2017-04-11T10:42:34.788Z,23.36
2017-04-11T10:43:35.035Z,23.27
2017-04-11T10:44:34.968Z,23.31
2017-04-11T10:45:34.905Z,23.31
2017-04-11T10:46:34.537Z,23.32
2017-04-11T10:47:34.784Z,23.28
2017-04-11T10:48:34.724Z,23.31
2017-04-11T10:49:34.658Z,23.18
2017-04-11T10:50:34.598Z,23.2
2017-04-11T10:51:34.641Z,23.2
2017-04-11T10:52:34.471Z,23.27
2017-04-11T10:53:34.404Z,23.25
2017-04-11T10:54:34.345Z,23.24
2017-04-11T10:55:34.280Z,23.25
2017-04-11T10:56:33.917Z,23.18
2017-04-11T10:57:34.170Z,23.15
2017-04-11T10:58:34.093Z,23.21
2017-04-11T10:59:34.031Z,23.17
2017-04-11T11:00:34.437Z,23.18
2017-04-11T11:01:33.905Z,23.21
2017-04-11T11:02:33.539Z,23.15
2017-04-11T11:03:33.776Z,23.18
2017-04-11T11:04:33.414Z,23.27
2017-04-11T11:05:33.656Z,23.2
2017-04-11T11:06:33.599Z,23.2
2017-04-11T11:07:33.228Z,23.13
2017-04-11T11:08:33.464Z,23.1
2017-04-11T11:09:33.403Z,23.18
2017-04-11T11:10:33.341Z,23.1
2017-04-11T11:11:33.304Z,23.09
2017-04-11T11:12:32.917Z,23.09
2017-04-11T11:13:33.155Z,23.09
2017-04-11T11:14:33.111Z,23.06
2017-04-11T11:15:32.725Z,23
2017-04-11T11:16:32.966Z,23.03
2017-04-11T11:17:32.906Z,23.03
2017-04-11T11:18:32.845Z,23.03
2017-04-11T11:19:32.481Z,23.03
2017-04-11T11:20:32.417Z,22.99
2017-04-11T11:21:32.656Z,22.99
2017-04-11T11:22:32.593Z,22.99
2017-04-11T11:23:32.527Z,23.05
2017-04-11T11:24:32.469Z,23.02
2017-04-11T11:25:32.499Z,22.99
2017-04-11T11:26:32.034Z,22.99
2017-04-11T11:27:32.277Z,22.96
2017-04-11T11:28:31.928Z,22.93
2017-04-11T11:29:32.159Z,22.96
2017-04-11T11:30:31.786Z,22.81
2017-04-11T11:31:32.026Z,22.84
2017-04-11T11:32:31.961Z,22.84
2017-04-11T11:33:31.959Z,22.83
2017-04-11T11:34:31.865Z,22.75
2017-04-11T11:35:31.469Z,22.78
2017-04-11T11:36:31.718Z,22.75
2017-04-11T11:37:31.645Z,22.73
2017-04-11T11:38:31.587Z,22.78
2017-04-11T11:39:31.527Z,22.76
2017-04-11T11:40:31.458Z,22.76
2017-04-11T11:41:31.394Z,22.7
2017-04-11T11:42:31.330Z,22.65
2017-04-11T11:43:31.268Z,22.63
2017-04-11T11:44:31.217Z,22.65
2017-04-11T11:45:31.162Z,22.66
2017-04-11T11:46:31.122Z,22.65
2017-04-11T11:47:31.024Z,22.6
2017-04-11T11:48:30.699Z,22.6
2017-04-11T11:49:30.888Z,22.57
2017-04-11T11:50:30.553Z,22.62
2017-04-11T11:51:30.767Z,22.57
2017-04-11T11:52:30.711Z,22.6
2017-04-11T11:53:30.636Z,22.55
2017-04-11T11:54:30.619Z,22.55
2017-04-11T11:55:30.209Z,22.57
2017-04-11T11:56:30.454Z,22.47
2017-04-11T11:57:30.385Z,22.47
2017-04-11T11:58:30.320Z,22.48
2017-04-11T11:59:30.266Z,22.44
2017-04-11T12:00:30.193Z,22.43
2017-04-11T12:01:30.134Z,22.45
2017-04-11T12:02:30.097Z,22.44
2017-04-11T12:03:30.006Z,22.43
2017-04-11T12:04:29.640Z,22.45
2017-04-11T12:05:29.878Z,22.53
2017-04-11T12:06:29.842Z,22.47
2017-04-11T12:07:29.753Z,22.57
2017-04-11T12:08:29.699Z,22.59
2017-04-11T12:09:29.329Z,22.57
2017-04-11T12:10:29.560Z,22.66
2017-04-11T12:11:29.194Z,22.63
2017-04-11T12:12:29.133Z,22.7
2017-04-11T12:13:29.384Z,22.69
2017-04-11T12:14:29.005Z,22.73
2017-04-11T12:15:29.247Z,22.78
2017-04-11T12:16:28.881Z,22.73
2017-04-11T12:17:29.129Z,22.76
2017-04-11T12:18:28.756Z,22.81
2017-04-11T12:19:28.693Z,22.8
2017-04-11T12:20:28.628Z,22.73
2017-04-11T12:21:28.865Z,22.78
2017-04-11T12:22:28.862Z,22.81
2017-04-11T12:23:28.453Z,22.78
2017-04-11T12:24:28.406Z,22.83
2017-04-11T12:25:28.354Z,22.85
2017-04-11T12:26:28.117Z,22.81
2017-04-11T12:27:28.494Z,22.83
2017-04-11T12:28:28.124Z,22.8
2017-04-11T12:29:28.370Z,22.83
2017-04-11T12:30:28.451Z,22.94
2017-04-11T12:31:28.251Z,22.85
2017-04-11T12:32:27.876Z,22.94
2017-04-11T12:33:27.810Z,22.87
2017-04-11T12:34:27.749Z,22.88
2017-04-11T12:35:28.350Z,22.87
2017-04-11T12:36:27.929Z,22.98
2017-04-11T12:37:27.556Z,22.99
2017-04-11T12:38:27.500Z,22.98
2017-04-11T12:39:27.734Z,22.99
2017-04-11T12:40:27.696Z,23.02
2017-04-11T12:41:27.622Z,23
2017-04-11T12:42:27.545Z,23
2017-04-11T12:43:27.482Z,23.02
2017-04-11T12:44:27.451Z,23
2017-04-11T12:45:27.363Z,23.03
2017-04-11T12:46:27.298Z,22.99
2017-04-11T12:47:27.228Z,23.03
2017-04-11T12:48:26.874Z,23.1
2017-04-11T12:49:27.136Z,23.12
2017-04-11T12:50:27.044Z,23.13
2017-04-11T12:51:26.981Z,23.08
2017-04-11T12:52:26.923Z,23.09
2017-04-11T12:53:26.918Z,23.1
2017-04-11T12:54:26.799Z,23.08
2017-04-11T12:55:26.729Z,23.12
2017-04-11T12:56:26.665Z,23.17
2017-04-11T12:57:26.618Z,23.09